sensor_id;sensor_type;location;lat;lon;timestamp;pressure;altitude;pressure_sealevel;temperature;humidity
16461;BME280;8341;42.048;24.650;2024-01-07T00:00:57;95961.88;;;7.38;100.00
16461;BME280;8341;42.048;24.650;2024-01-07T00:03:24;95948.81;;;7.36;100.00
16461;BME280;8341;42.048;24.650;2024-01-07T00:05:51;95949.28;;;7.35;100.00
16461;BME280;8341;42.048;24.650;2024-01-07T00:08:18;95954.59;;;7.55;100.00
16461;BME280;8341;42.048;24.650;2024-01-07T00:10:46;95928.47;;;7.52;100.00
16461;BME280;8341;42.048;24.650;2024-01-07T00:13:15;95905.75;;;7.49;100.00
16461;BME280;8341;42.048;24.650;2024-01-07T00:15:42;95905.63;;;7.70;100.00
16461;BME280;8341;42.048;24.650;2024-01-07T00:18:09;95908.31;;;7.64;100.00
16461;BME280;8341;42.048;24.650;2024-01-07T00:20:36;95898.88;;;7.54;100.00
16461;BME280;8341;42.048;24.650;2024-01-07T00:23:03;95900.88;;;7.59;100.00
16461;BME280;8341;42.048;24.650;2024-01-07T00:25:30;95890.50;;;7.52;100.00
16461;BME280;8341;42.048;24.650;2024-01-07T00:27:57;95894.94;;;7.55;100.00
16461;BME280;8341;42.048;24.650;2024-01-07T00:30:25;95900.44;;;7.66;100.00
16461;BME280;8341;42.048;24.650;2024-01-07T00:32:52;95895.78;;;7.72;100.00
16461;BME280;8341;42.048;24.650;2024-01-07T00:35:19;95898.53;;;7.83;100.00
16461;BME280;8341;42.048;24.650;2024-01-07T00:37:46;95891.19;;;7.89;100.00
16461;BME280;8341;42.048;24.650;2024-01-07T00:40:13;95884.56;;;7.96;100.00
16461;BME280;8341;42.048;24.650;2024-01-07T00:42:40;95868.25;;;7.90;100.00
16461;BME280;8341;42.048;24.650;2024-01-07T00:45:08;95877.56;;;7.78;100.00
16461;BME280;8341;42.048;24.650;2024-01-07T00:47:37;95858.84;;;7.86;100.00
16461;BME280;8341;42.048;24.650;2024-01-07T00:50:04;95853.41;;;7.86;100.00
16461;BME280;8341;42.048;24.650;2024-01-07T00:52:31;95839.78;;;7.69;100.00
16461;BME280;8341;42.048;24.650;2024-01-07T00:54:58;95863.47;;;7.74;100.00
16461;BME280;8341;42.048;24.650;2024-01-07T00:57:28;95850.69;;;7.80;100.00
16461;BME280;8341;42.048;24.650;2024-01-07T00:59:55;95830.72;;;7.89;100.00
16461;BME280;8341;42.048;24.650;2024-01-07T01:02:22;95807.06;;;7.89;100.00
16461;BME280;8341;42.048;24.650;2024-01-07T01:04:50;95783.13;;;7.99;100.00
16461;BME280;8341;42.048;24.650;2024-01-07T01:07:17;95755.78;;;8.08;100.00
16461;BME280;8341;42.048;24.650;2024-01-07T01:09:44;95759.72;;;8.12;100.00
16461;BME280;8341;42.048;24.650;2024-01-07T01:12:11;95751.09;;;8.14;100.00
16461;BME280;8341;42.048;24.650;2024-01-07T01:14:38;95749.78;;;7.76;100.00
16461;BME280;8341;42.048;24.650;2024-01-07T01:17:05;95742.91;;;7.86;100.00
16461;BME280;8341;42.048;24.650;2024-01-07T01:19:32;95738.47;;;7.89;100.00
16461;BME280;8341;42.048;24.650;2024-01-07T01:22:01;95712.06;;;7.89;100.00
16461;BME280;8341;42.048;24.650;2024-01-07T01:24:28;95707.63;;;7.86;100.00
16461;BME280;8341;42.048;24.650;2024-01-07T01:26:55;95725.41;;;7.87;100.00
16461;BME280;8341;42.048;24.650;2024-01-07T01:29:22;95722.72;;;7.98;100.00
16461;BME280;8341;42.048;24.650;2024-01-07T01:31:48;95701.72;;;8.04;100.00
16461;BME280;8341;42.048;24.650;2024-01-07T01:34:15;95688.16;;;8.04;100.00
16461;BME280;8341;42.048;24.650;2024-01-07T01:36:42;95695.09;;;8.16;100.00
16461;BME280;8341;42.048;24.650;2024-01-07T01:39:11;95678.06;;;8.16;100.00
16461;BME280;8341;42.048;24.650;2024-01-07T01:41:38;95669.41;;;8.23;100.00
16461;BME280;8341;42.048;24.650;2024-01-07T01:44:06;95665.22;;;8.28;100.00
16461;BME280;8341;42.048;24.650;2024-01-07T01:46:33;95641.50;;;8.23;100.00
16461;BME280;8341;42.048;24.650;2024-01-07T01:49:00;95651.16;;;8.24;100.00
16461;BME280;8341;42.048;24.650;2024-01-07T01:51:28;95645.72;;;8.18;100.00
16461;BME280;8341;42.048;24.650;2024-01-07T01:53:55;95627.69;;;8.20;100.00
16461;BME280;8341;42.048;24.650;2024-01-07T01:56:26;95633.16;;;8.32;100.00
16461;BME280;8341;42.048;24.650;2024-01-07T01:58:54;95620.06;;;8.30;100.00
16461;BME280;8341;42.048;24.650;2024-01-07T02:01:22;95613.88;;;8.41;100.00
16461;BME280;8341;42.048;24.650;2024-01-07T02:03:50;95619.06;;;8.39;100.00
16461;BME280;8341;42.048;24.650;2024-01-07T02:06:18;95600.06;;;8.16;100.00
16461;BME280;8341;42.048;24.650;2024-01-07T02:08:45;95594.63;;;8.28;100.00
16461;BME280;8341;42.048;24.650;2024-01-07T02:11:19;95615.84;;;8.35;100.00
16461;BME280;8341;42.048;24.650;2024-01-07T02:13:48;95605.72;;;8.30;100.00
16461;BME280;8341;42.048;24.650;2024-01-07T02:16:15;95625.72;;;8.04;100.00
16461;BME280;8341;42.048;24.650;2024-01-07T02:18:44;95603.50;;;7.78;100.00
16461;BME280;8341;42.048;24.650;2024-01-07T02:21:13;95595.38;;;8.00;100.00
16461;BME280;8341;42.048;24.650;2024-01-07T02:23:40;95582.78;;;8.08;100.00
16461;BME280;8341;42.048;24.650;2024-01-07T02:26:09;95566.50;;;8.08;100.00
16461;BME280;8341;42.048;24.650;2024-01-07T02:28:36;95569.47;;;8.10;100.00
16461;BME280;8341;42.048;24.650;2024-01-07T02:31:03;95553.16;;;8.22;100.00
16461;BME280;8341;42.048;24.650;2024-01-07T02:33:30;95542.56;;;8.18;100.00
16461;BME280;8341;42.048;24.650;2024-01-07T02:35:57;95526.75;;;8.28;100.00
16461;BME280;8341;42.048;24.650;2024-01-07T02:38:24;95511.09;;;8.56;100.00
16461;BME280;8341;42.048;24.650;2024-01-07T02:40:51;95511.03;;;8.78;100.00
16461;BME280;8341;42.048;24.650;2024-01-07T02:43:20;95510.41;;;8.96;100.00
16461;BME280;8341;42.048;24.650;2024-01-07T02:45:47;95510.84;;;9.11;100.00
16461;BME280;8341;42.048;24.650;2024-01-07T02:48:14;95512.50;;;9.20;100.00
16461;BME280;8341;42.048;24.650;2024-01-07T02:50:42;95508.50;;;9.32;100.00
16461;BME280;8341;42.048;24.650;2024-01-07T02:53:09;95517.25;;;9.49;100.00
16461;BME280;8341;42.048;24.650;2024-01-07T02:55:37;95523.06;;;9.64;100.00
16461;BME280;8341;42.048;24.650;2024-01-07T02:58:04;95514.22;;;9.88;100.00
16461;BME280;8341;42.048;24.650;2024-01-07T03:00:32;95517.03;;;9.77;100.00
16461;BME280;8341;42.048;24.650;2024-01-07T03:02:59;95530.34;;;9.51;100.00
16461;BME280;8341;42.048;24.650;2024-01-07T03:05:26;95529.63;;;9.09;100.00
16461;BME280;8341;42.048;24.650;2024-01-07T03:07:58;95535.06;;;9.09;100.00
16461;BME280;8341;42.048;24.650;2024-01-07T03:10:25;95555.41;;;8.97;100.00
16461;BME280;8341;42.048;24.650;2024-01-07T03:12:52;95548.56;;;8.79;100.00
16461;BME280;8341;42.048;24.650;2024-01-07T03:15:20;95555.94;;;8.90;100.00
16461;BME280;8341;42.048;24.650;2024-01-07T03:17:48;95552.44;;;8.95;100.00
16461;BME280;8341;42.048;24.650;2024-01-07T03:20:15;95547.69;;;9.07;100.00
16461;BME280;8341;42.048;24.650;2024-01-07T03:22:42;95545.22;;;9.09;100.00
16461;BME280;8341;42.048;24.650;2024-01-07T03:25:09;95544.94;;;9.12;100.00
16461;BME280;8341;42.048;24.650;2024-01-07T03:27:37;95538.50;;;9.15;100.00
16461;BME280;8341;42.048;24.650;2024-01-07T03:30:05;95541.91;;;9.27;100.00
16461;BME280;8341;42.048;24.650;2024-01-07T03:32:33;95544.25;;;9.06;100.00
16461;BME280;8341;42.048;24.650;2024-01-07T03:35:02;95527.88;;;9.12;100.00
16461;BME280;8341;42.048;24.650;2024-01-07T03:37:29;95527.16;;;9.11;100.00
16461;BME280;8341;42.048;24.650;2024-01-07T03:39:56;95520.19;;;9.21;100.00
16461;BME280;8341;42.048;24.650;2024-01-07T03:42:23;95529.50;;;9.31;100.00
16461;BME280;8341;42.048;24.650;2024-01-07T03:44:50;95537.44;;;9.29;100.00
16461;BME280;8341;42.048;24.650;2024-01-07T03:47:17;95520.22;;;9.10;100.00
16461;BME280;8341;42.048;24.650;2024-01-07T03:49:44;95517.50;;;9.10;100.00
16461;BME280;8341;42.048;24.650;2024-01-07T03:52:12;95521.91;;;9.19;100.00
16461;BME280;8341;42.048;24.650;2024-01-07T03:54:39;95526.59;;;9.24;100.00
16461;BME280;8341;42.048;24.650;2024-01-07T03:57:06;95533.00;;;9.26;100.00
16461;BME280;8341;42.048;24.650;2024-01-07T03:59:33;95518.13;;;9.27;100.00
16461;BME280;8341;42.048;24.650;2024-01-07T04:02:00;95515.94;;;9.26;100.00
16461;BME280;8341;42.048;24.650;2024-01-07T04:04:27;95503.31;;;9.28;100.00
16461;BME280;8341;42.048;24.650;2024-01-07T04:06:54;95497.66;;;9.26;100.00
16461;BME280;8341;42.048;24.650;2024-01-07T04:09:23;95474.41;;;9.25;100.00
16461;BME280;8341;42.048;24.650;2024-01-07T04:11:50;95456.06;;;9.31;100.00
16461;BME280;8341;42.048;24.650;2024-01-07T04:14:17;95476.06;;;9.34;100.00
16461;BME280;8341;42.048;24.650;2024-01-07T04:16:44;95506.97;;;9.36;100.00
16461;BME280;8341;42.048;24.650;2024-01-07T04:19:11;95519.28;;;9.43;100.00
16461;BME280;8341;42.048;24.650;2024-01-07T04:21:38;95499.88;;;9.58;100.00
16461;BME280;8341;42.048;24.650;2024-01-07T04:24:05;95510.97;;;9.65;100.00
16461;BME280;8341;42.048;24.650;2024-01-07T04:26:34;95504.00;;;9.70;100.00
16461;BME280;8341;42.048;24.650;2024-01-07T04:29:01;95480.44;;;9.42;100.00
16461;BME280;8341;42.048;24.650;2024-01-07T04:31:28;95504.66;;;9.46;100.00
16461;BME280;8341;42.048;24.650;2024-01-07T04:33:55;95505.06;;;9.56;100.00
16461;BME280;8341;42.048;24.650;2024-01-07T04:36:22;95516.63;;;9.67;100.00
16461;BME280;8341;42.048;24.650;2024-01-07T04:38:49;95501.03;;;9.68;100.00
16461;BME280;8341;42.048;24.650;2024-01-07T04:41:16;95491.63;;;9.69;100.00
16461;BME280;8341;42.048;24.650;2024-01-07T04:43:44;95500.34;;;9.62;100.00
16461;BME280;8341;42.048;24.650;2024-01-07T04:46:11;95510.25;;;9.59;100.00
16461;BME280;8341;42.048;24.650;2024-01-07T04:48:38;95502.34;;;9.56;100.00
16461;BME280;8341;42.048;24.650;2024-01-07T04:51:06;95471.78;;;9.44;100.00
16461;BME280;8341;42.048;24.650;2024-01-07T04:53:34;95476.44;;;9.49;100.00
16461;BME280;8341;42.048;24.650;2024-01-07T04:56:01;95476.69;;;9.51;100.00
16461;BME280;8341;42.048;24.650;2024-01-07T04:58:28;95496.47;;;9.52;100.00
16461;BME280;8341;42.048;24.650;2024-01-07T05:00:56;95499.22;;;9.46;100.00
16461;BME280;8341;42.048;24.650;2024-01-07T05:03:23;95490.09;;;9.43;100.00
16461;BME280;8341;42.048;24.650;2024-01-07T05:05:50;95491.06;;;9.46;100.00
16461;BME280;8341;42.048;24.650;2024-01-07T05:08:17;95495.53;;;9.43;100.00
16461;BME280;8341;42.048;24.650;2024-01-07T05:10:44;95488.16;;;9.38;100.00
16461;BME280;8341;42.048;24.650;2024-01-07T05:13:11;95485.44;;;9.38;100.00
16461;BME280;8341;42.048;24.650;2024-01-07T05:15:39;95482.50;;;9.36;100.00
16461;BME280;8341;42.048;24.650;2024-01-07T05:18:08;95484.19;;;9.39;100.00
16461;BME280;8341;42.048;24.650;2024-01-07T05:20:35;95483.69;;;9.41;100.00
16461;BME280;8341;42.048;24.650;2024-01-07T05:23:03;95487.16;;;9.41;100.00
16461;BME280;8341;42.048;24.650;2024-01-07T05:25:30;95493.81;;;9.40;100.00
16461;BME280;8341;42.048;24.650;2024-01-07T05:27:57;95489.91;;;9.36;100.00
16461;BME280;8341;42.048;24.650;2024-01-07T05:30:24;95495.66;;;9.27;100.00
16461;BME280;8341;42.048;24.650;2024-01-07T05:32:51;95483.25;;;9.31;100.00
16461;BME280;8341;42.048;24.650;2024-01-07T05:35:19;95462.81;;;9.19;100.00
16461;BME280;8341;42.048;24.650;2024-01-07T05:37:46;95448.25;;;9.17;100.00
16461;BME280;8341;42.048;24.650;2024-01-07T05:40:13;95445.59;;;9.11;100.00
16461;BME280;8341;42.048;24.650;2024-01-07T05:42:40;95445.84;;;9.08;100.00
16461;BME280;8341;42.048;24.650;2024-01-07T05:45:08;95435.94;;;9.10;100.00
16461;BME280;8341;42.048;24.650;2024-01-07T05:47:35;95447.81;;;9.07;100.00
16461;BME280;8341;42.048;24.650;2024-01-07T05:50:02;95442.72;;;8.98;100.00
16461;BME280;8341;42.048;24.650;2024-01-07T05:52:31;95438.16;;;8.71;100.00
16461;BME280;8341;42.048;24.650;2024-01-07T05:54:58;95444.44;;;8.55;100.00
16461;BME280;8341;42.048;24.650;2024-01-07T05:57:25;95460.56;;;8.36;100.00
16461;BME280;8341;42.048;24.650;2024-01-07T05:59:53;95451.41;;;8.45;100.00
16461;BME280;8341;42.048;24.650;2024-01-07T06:02:20;95447.94;;;8.50;100.00
16461;BME280;8341;42.048;24.650;2024-01-07T06:04:48;95448.44;;;8.43;100.00
16461;BME280;8341;42.048;24.650;2024-01-07T06:07:15;95419.53;;;8.45;100.00
16461;BME280;8341;42.048;24.650;2024-01-07T06:09:43;95445.47;;;8.93;100.00
16461;BME280;8341;42.048;24.650;2024-01-07T06:12:10;95447.41;;;8.98;100.00
16461;BME280;8341;42.048;24.650;2024-01-07T06:14:37;95472.41;;;8.91;100.00
16461;BME280;8341;42.048;24.650;2024-01-07T06:17:04;95468.19;;;8.95;100.00
16461;BME280;8341;42.048;24.650;2024-01-07T06:19:31;95459.28;;;8.95;100.00
16461;BME280;8341;42.048;24.650;2024-01-07T06:21:58;95458.53;;;8.94;100.00
16461;BME280;8341;42.048;24.650;2024-01-07T06:24:25;95472.88;;;9.30;96.49
16461;BME280;8341;42.048;24.650;2024-01-07T06:26:54;95472.69;;;9.22;100.00
16461;BME280;8341;42.048;24.650;2024-01-07T06:29:21;95466.16;;;9.36;89.95
16461;BME280;8341;42.048;24.650;2024-01-07T06:31:48;95457.59;;;9.57;91.62
16461;BME280;8341;42.048;24.650;2024-01-07T06:34:15;95457.41;;;9.73;87.80
16461;BME280;8341;42.048;24.650;2024-01-07T06:36:42;95437.19;;;9.69;98.21
16461;BME280;8341;42.048;24.650;2024-01-07T06:39:09;95430.78;;;9.66;98.46
16461;BME280;8341;42.048;24.650;2024-01-07T06:41:36;95436.03;;;9.59;100.00
16461;BME280;8341;42.048;24.650;2024-01-07T06:44:04;95450.06;;;9.68;97.79
16461;BME280;8341;42.048;24.650;2024-01-07T06:46:31;95460.22;;;9.68;100.00
16461;BME280;8341;42.048;24.650;2024-01-07T06:49:00;95461.38;;;9.78;100.00
16461;BME280;8341;42.048;24.650;2024-01-07T06:51:27;95460.88;;;9.74;100.00
16461;BME280;8341;42.048;24.650;2024-01-07T06:53:54;95464.75;;;9.84;100.00
16461;BME280;8341;42.048;24.650;2024-01-07T06:56:21;95469.78;;;9.74;99.29
16461;BME280;8341;42.048;24.650;2024-01-07T06:58:49;95471.47;;;9.83;100.00
16461;BME280;8341;42.048;24.650;2024-01-07T07:01:19;95475.63;;;9.84;100.00
16461;BME280;8341;42.048;24.650;2024-01-07T07:03:47;95496.88;;;9.91;100.00
16461;BME280;8341;42.048;24.650;2024-01-07T07:06:15;95486.59;;;10.02;100.00
16461;BME280;8341;42.048;24.650;2024-01-07T07:08:42;95486.16;;;10.23;90.08
16461;BME280;8341;42.048;24.650;2024-01-07T07:11:09;95474.53;;;10.46;85.95
16461;BME280;8341;42.048;24.650;2024-01-07T07:13:36;95470.41;;;10.58;85.29
16461;BME280;8341;42.048;24.650;2024-01-07T07:16:05;95473.69;;;10.76;81.69
16461;BME280;8341;42.048;24.650;2024-01-07T07:18:33;95488.09;;;10.89;85.21
16461;BME280;8341;42.048;24.650;2024-01-07T07:21:00;95497.84;;;11.03;89.10
16461;BME280;8341;42.048;24.650;2024-01-07T07:23:27;95500.63;;;10.98;87.98
16461;BME280;8341;42.048;24.650;2024-01-07T07:25:54;95503.38;;;10.98;88.13
16461;BME280;8341;42.048;24.650;2024-01-07T07:28:21;95514.50;;;11.00;84.05
16461;BME280;8341;42.048;24.650;2024-01-07T07:30:48;95533.78;;;11.20;76.21
16461;BME280;8341;42.048;24.650;2024-01-07T07:33:15;95537.34;;;11.34;76.21
16461;BME280;8341;42.048;24.650;2024-01-07T07:35:44;95544.97;;;11.54;77.27
16461;BME280;8341;42.048;24.650;2024-01-07T07:38:11;95548.50;;;11.68;77.34
16461;BME280;8341;42.048;24.650;2024-01-07T07:40:38;95543.31;;;11.83;80.85
16461;BME280;8341;42.048;24.650;2024-01-07T07:43:05;95545.16;;;11.93;80.40
16461;BME280;8341;42.048;24.650;2024-01-07T07:45:32;95543.28;;;12.02;81.75
16461;BME280;8341;42.048;24.650;2024-01-07T07:47:59;95516.50;;;11.68;80.75
16461;BME280;8341;42.048;24.650;2024-01-07T07:50:27;95501.41;;;11.80;70.76
16461;BME280;8341;42.048;24.650;2024-01-07T07:52:55;95513.84;;;12.08;73.99
16461;BME280;8341;42.048;24.650;2024-01-07T07:55:22;95511.78;;;12.14;74.43
16461;BME280;8341;42.048;24.650;2024-01-07T07:57:49;95517.03;;;12.38;77.25
16461;BME280;8341;42.048;24.650;2024-01-07T08:00:17;95510.97;;;12.58;75.58
16461;BME280;8341;42.048;24.650;2024-01-07T08:02:44;95516.63;;;12.73;73.50
16461;BME280;8341;42.048;24.650;2024-01-07T08:05:11;95506.75;;;12.57;72.90
16461;BME280;8341;42.048;24.650;2024-01-07T08:07:39;95509.47;;;12.70;72.21
16461;BME280;8341;42.048;24.650;2024-01-07T08:10:08;95503.06;;;12.41;73.78
16461;BME280;8341;42.048;24.650;2024-01-07T08:12:35;95492.81;;;11.89;82.85
16461;BME280;8341;42.048;24.650;2024-01-07T08:15:04;95486.75;;;11.97;81.83
16461;BME280;8341;42.048;24.650;2024-01-07T08:17:31;95490.00;;;11.95;83.07
16461;BME280;8341;42.048;24.650;2024-01-07T08:19:58;95496.63;;;12.13;82.59
16461;BME280;8341;42.048;24.650;2024-01-07T08:22:26;95516.22;;;12.30;81.72
16461;BME280;8341;42.048;24.650;2024-01-07T08:24:53;95525.22;;;12.12;79.54
16461;BME280;8341;42.048;24.650;2024-01-07T08:27:22;95501.69;;;12.09;81.03
16461;BME280;8341;42.048;24.650;2024-01-07T08:29:49;95509.25;;;12.16;79.43
16461;BME280;8341;42.048;24.650;2024-01-07T08:32:16;95522.72;;;12.40;69.43
16461;BME280;8341;42.048;24.650;2024-01-07T08:34:44;95524.72;;;12.52;79.21
16461;BME280;8341;42.048;24.650;2024-01-07T08:37:11;95512.63;;;12.35;84.30
16461;BME280;8341;42.048;24.650;2024-01-07T08:39:38;95501.28;;;12.57;83.55
16461;BME280;8341;42.048;24.650;2024-01-07T08:42:05;95518.59;;;12.86;82.85
16461;BME280;8341;42.048;24.650;2024-01-07T08:44:34;95499.56;;;12.80;83.15
16461;BME280;8341;42.048;24.650;2024-01-07T08:47:02;95500.28;;;13.07;82.82
16461;BME280;8341;42.048;24.650;2024-01-07T08:49:29;95507.19;;;13.21;78.31
16461;BME280;8341;42.048;24.650;2024-01-07T08:51:56;95503.69;;;13.21;82.23
16461;BME280;8341;42.048;24.650;2024-01-07T08:54:23;95513.03;;;12.78;92.66
16461;BME280;8341;42.048;24.650;2024-01-07T08:56:50;95495.41;;;12.53;99.68
16461;BME280;8341;42.048;24.650;2024-01-07T08:59:17;95496.84;;;12.28;100.00
16461;BME280;8341;42.048;24.650;2024-01-07T09:01:46;95501.06;;;12.16;100.00
16461;BME280;8341;42.048;24.650;2024-01-07T09:04:13;95497.47;;;12.21;100.00
16461;BME280;8341;42.048;24.650;2024-01-07T09:06:42;95494.09;;;12.28;93.12
16461;BME280;8341;42.048;24.650;2024-01-07T09:09:09;95503.47;;;12.45;93.92
16461;BME280;8341;42.048;24.650;2024-01-07T09:11:36;95491.91;;;12.13;97.79
16461;BME280;8341;42.048;24.650;2024-01-07T09:14:03;95486.09;;;11.90;100.00
16461;BME280;8341;42.048;24.650;2024-01-07T09:16:30;95470.31;;;11.70;100.00
16461;BME280;8341;42.048;24.650;2024-01-07T09:18:59;95465.16;;;11.48;99.63
16461;BME280;8341;42.048;24.650;2024-01-07T09:21:26;95456.72;;;11.33;98.51
16461;BME280;8341;42.048;24.650;2024-01-07T09:23:53;95461.34;;;11.38;100.00
16461;BME280;8341;42.048;24.650;2024-01-07T09:26:20;95466.59;;;11.36;100.00
16461;BME280;8341;42.048;24.650;2024-01-07T09:28:47;95460.47;;;11.30;100.00
16461;BME280;8341;42.048;24.650;2024-01-07T09:31:14;95447.50;;;11.36;100.00
16461;BME280;8341;42.048;24.650;2024-01-07T09:33:42;95448.78;;;11.48;100.00
16461;BME280;8341;42.048;24.650;2024-01-07T09:36:10;95446.06;;;11.48;100.00
16461;BME280;8341;42.048;24.650;2024-01-07T09:38:37;95453.72;;;11.81;100.00
16461;BME280;8341;42.048;24.650;2024-01-07T09:41:05;95465.75;;;12.31;100.00
16461;BME280;8341;42.048;24.650;2024-01-07T09:43:32;95467.31;;;12.39;100.00
16461;BME280;8341;42.048;24.650;2024-01-07T09:45:59;95469.72;;;12.56;100.00
16461;BME280;8341;42.048;24.650;2024-01-07T09:48:26;95471.78;;;12.76;100.00
16461;BME280;8341;42.048;24.650;2024-01-07T09:50:53;95475.03;;;12.88;100.00
16461;BME280;8341;42.048;24.650;2024-01-07T09:53:25;95479.56;;;12.85;95.96
16461;BME280;8341;42.048;24.650;2024-01-07T09:55:57;95453.66;;;12.39;100.00
16461;BME280;8341;42.048;24.650;2024-01-07T09:58:28;95467.13;;;12.50;100.00
16461;BME280;8341;42.048;24.650;2024-01-07T10:00:55;95464.88;;;12.75;100.00
16461;BME280;8341;42.048;24.650;2024-01-07T10:03:22;95444.81;;;12.46;100.00
16461;BME280;8341;42.048;24.650;2024-01-07T10:05:50;95427.06;;;12.27;100.00
16461;BME280;8341;42.048;24.650;2024-01-07T10:08:17;95432.19;;;12.56;100.00
16461;BME280;8341;42.048;24.650;2024-01-07T10:10:46;95436.22;;;12.76;98.19
16461;BME280;8341;42.048;24.650;2024-01-07T10:13:15;95431.53;;;12.97;95.33
16461;BME280;8341;42.048;24.650;2024-01-07T10:15:42;95439.88;;;12.32;88.94
16461;BME280;8341;42.048;24.650;2024-01-07T10:18:09;95421.06;;;11.89;91.51
16461;BME280;8341;42.048;24.650;2024-01-07T10:20:36;95422.66;;;12.24;91.86
16461;BME280;8341;42.048;24.650;2024-01-07T10:23:04;95430.84;;;12.11;88.95
16461;BME280;8341;42.048;24.650;2024-01-07T10:25:33;95428.03;;;12.16;88.93
16461;BME280;8341;42.048;24.650;2024-01-07T10:28:02;95417.19;;;12.37;87.92
16461;BME280;8341;42.048;24.650;2024-01-07T10:30:29;95420.59;;;12.64;89.41
16461;BME280;8341;42.048;24.650;2024-01-07T10:32:58;95415.13;;;12.64;83.85
16461;BME280;8341;42.048;24.650;2024-01-07T10:35:28;95428.44;;;12.80;82.16
16461;BME280;8341;42.048;24.650;2024-01-07T10:37:56;95428.53;;;12.88;80.33
16461;BME280;8341;42.048;24.650;2024-01-07T10:40:23;95422.56;;;12.76;80.33
16461;BME280;8341;42.048;24.650;2024-01-07T10:42:52;95421.34;;;12.64;81.69
16461;BME280;8341;42.048;24.650;2024-01-07T10:45:22;95402.91;;;12.78;81.90
16461;BME280;8341;42.048;24.650;2024-01-07T10:47:55;95405.50;;;12.83;81.49
16461;BME280;8341;42.048;24.650;2024-01-07T10:50:26;95408.59;;;13.00;79.84
16461;BME280;8341;42.048;24.650;2024-01-07T10:52:58;95410.00;;;12.60;80.05
16461;BME280;8341;42.048;24.650;2024-01-07T10:55:33;95406.81;;;12.69;81.50
16461;BME280;8341;42.048;24.650;2024-01-07T10:58:03;95400.28;;;13.06;79.65
16461;BME280;8341;42.048;24.650;2024-01-07T11:00:32;95404.66;;;13.43;77.45
16461;BME280;8341;42.048;24.650;2024-01-07T11:03:06;95405.75;;;13.89;74.21
16461;BME280;8341;42.048;24.650;2024-01-07T11:05:40;95404.47;;;14.25;74.94
16461;BME280;8341;42.048;24.650;2024-01-07T11:08:18;95413.28;;;14.60;72.21
16461;BME280;8341;42.048;24.650;2024-01-07T11:10:50;95402.41;;;14.90;69.61
16461;BME280;8341;42.048;24.650;2024-01-07T11:13:35;95399.69;;;15.05;65.22
16461;BME280;8341;42.048;24.650;2024-01-07T11:16:06;95410.31;;;15.01;62.48
16461;BME280;8341;42.048;24.650;2024-01-07T11:18:38;95395.81;;;14.93;62.47
16461;BME280;8341;42.048;24.650;2024-01-07T11:21:05;95401.72;;;14.54;62.43
16461;BME280;8341;42.048;24.650;2024-01-07T11:23:33;95404.69;;;14.63;62.79
16461;BME280;8341;42.048;24.650;2024-01-07T11:26:03;95396.56;;;14.43;62.95
16461;BME280;8341;42.048;24.650;2024-01-07T11:28:44;95383.47;;;14.28;64.96
16461;BME280;8341;42.048;24.650;2024-01-07T11:31:13;95390.34;;;14.42;63.04
16461;BME280;8341;42.048;24.650;2024-01-07T11:33:42;95398.84;;;14.67;62.57
16461;BME280;8341;42.048;24.650;2024-01-07T11:36:11;95399.06;;;14.69;64.15
16461;BME280;8341;42.048;24.650;2024-01-07T11:38:38;95384.81;;;14.34;63.07
16461;BME280;8341;42.048;24.650;2024-01-07T11:41:09;95388.59;;;14.60;62.89
16461;BME280;8341;42.048;24.650;2024-01-07T11:43:37;95385.00;;;14.80;64.20
16461;BME280;8341;42.048;24.650;2024-01-07T11:46:04;95396.38;;;14.91;64.18
16461;BME280;8341;42.048;24.650;2024-01-07T11:48:33;95385.97;;;15.05;64.41
16461;BME280;8341;42.048;24.650;2024-01-07T11:51:00;95385.78;;;15.03;62.47
16461;BME280;8341;42.048;24.650;2024-01-07T11:53:27;95382.84;;;15.01;61.74
16461;BME280;8341;42.048;24.650;2024-01-07T11:55:54;95385.97;;;15.05;62.14
16461;BME280;8341;42.048;24.650;2024-01-07T11:58:21;95383.91;;;14.83;60.94
16461;BME280;8341;42.048;24.650;2024-01-07T12:00:48;95377.56;;;14.45;62.13
16461;BME280;8341;42.048;24.650;2024-01-07T12:03:15;95371.66;;;14.05;64.51
16461;BME280;8341;42.048;24.650;2024-01-07T12:05:44;95387.28;;;14.17;64.00
16461;BME280;8341;42.048;24.650;2024-01-07T12:08:13;95390.38;;;14.50;65.42
16461;BME280;8341;42.048;24.650;2024-01-07T12:10:41;95388.22;;;14.56;64.10
16461;BME280;8341;42.048;24.650;2024-01-07T12:13:08;95378.81;;;13.79;65.77
16461;BME280;8341;42.048;24.650;2024-01-07T12:15:37;95382.78;;;13.99;65.63
16461;BME280;8341;42.048;24.650;2024-01-07T12:18:05;95387.56;;;14.06;64.82
16461;BME280;8341;42.048;24.650;2024-01-07T12:20:32;95384.56;;;13.89;66.05
16461;BME280;8341;42.048;24.650;2024-01-07T12:23:06;95387.56;;;14.06;65.38
16461;BME280;8341;42.048;24.650;2024-01-07T12:25:34;95388.59;;;13.96;64.30
16461;BME280;8341;42.048;24.650;2024-01-07T12:28:01;95390.47;;;14.01;63.43
16461;BME280;8341;42.048;24.650;2024-01-07T12:30:28;95385.63;;;13.86;61.12
16461;BME280;8341;42.048;24.650;2024-01-07T12:32:56;95383.16;;;14.03;62.12
16461;BME280;8341;42.048;24.650;2024-01-07T12:35:25;95372.75;;;14.02;61.99
16461;BME280;8341;42.048;24.650;2024-01-07T12:37:52;95378.84;;;14.15;61.25
16461;BME280;8341;42.048;24.650;2024-01-07T12:40:21;95378.91;;;14.30;62.37
16461;BME280;8341;42.048;24.650;2024-01-07T12:42:49;95381.78;;;14.46;62.74
16461;BME280;8341;42.048;24.650;2024-01-07T12:45:16;95369.00;;;14.48;62.69
16461;BME280;8341;42.048;24.650;2024-01-07T12:47:44;95372.88;;;14.60;63.02
16461;BME280;8341;42.048;24.650;2024-01-07T12:50:13;95373.63;;;14.68;61.75
16461;BME280;8341;42.048;24.650;2024-01-07T12:52:41;95380.78;;;14.79;62.29
16461;BME280;8341;42.048;24.650;2024-01-07T12:55:08;95378.97;;;14.74;62.32
16461;BME280;8341;42.048;24.650;2024-01-07T12:57:36;95383.16;;;14.82;62.36
16461;BME280;8341;42.048;24.650;2024-01-07T13:00:04;95375.31;;;14.86;63.62
16461;BME280;8341;42.048;24.650;2024-01-07T13:02:33;95387.59;;;14.93;64.28